Albury
Weather
Information

and Archive.
Albury Local Internet Skycam This service provided and funded by Albury Local Internet

Help keep our weatherstation running:

Lavington Weatherstation live data - Conditions of Use

Last updated on 29-Jul-2016 at 15:49:03
Temperature
  Currently  9.6 degrees C
  Apparent Temperature ("Wind Chill") is 6.8 degrees C
  Today has ranged from  7.2 at 00:44 to 12.3 at 12:19
  Yesterday ranged from  6.0 at 00:12 to 10.8 at 12:19
Wind
  Now:   14.0kmh, gusting to  16.2kmh from 297 degrees (WNW)
  Hour:  13.1kmh, gusting to  22.3kmh
Rainfall
   0.6mm Midnight to Midnight (ie, yesterday)
   0.0mm Since Midnight (ie, so far today)
   0.6mm 9am yesterday to 9am today
 102.0mm Total this month
Misc items
  Relative humidity is 99%
  Dewpoint is 9.4 deg C
  Estimated Cloudbase is 100 feet
  Barometric Pressure is 1023.0 mbar
  Solar Insolation: 132 W/m^2
  There should be 457 W/m^2 available to a tracking array
  The sun is 16.8 degrees above the horizon bearing 309.2 degrees.
Top Solar flares in the last 24 hours <--- NEW

Last 24 hours Temperature Graph (click graph for history)
temperature

Last 24 hours Dynamic Wind display (click image for 4-hour image):
Wind Rose

Current Yarrawonga Weather Radar and Infrared Satellite Images from the BOM.

Hourly summaries in the tables below are cumulative and peak values
for the preceding hour, and instantaneous values at the hour.
So far today, 29-Jul-2016
Time   Barom.  Wind + Gust    Direction   RH   Rain    Temp.  Minimum    Maximum
01:00  1026.0   5.5  10.8kmh  330 (NNW)   99%  0.0mm    7.4   7.2@00:44  7.6@00:00
02:00  1026.0   5.4  10.1kmh   10 ( N )   99%  0.0mm    7.5   7.3@01:02  7.5@01:15
03:00  1025.0   8.6  12.6kmh   26 (NNE)   99%  0.0mm    7.6   7.5@02:00  7.6@02:24
04:00  1025.0   6.2  14.8kmh  325 ( NW)   99%  0.0mm    7.6   7.6@03:00  7.8@03:28
05:00  1025.0   7.4  11.9kmh  333 (NNW)   99%  0.0mm    7.6   7.6@04:00  7.7@04:13
06:00  1025.0   6.5  13.3kmh  324 ( NW)   99%  0.0mm    7.7   7.6@05:00  7.8@05:24
07:00  1026.0   9.2  15.5kmh  328 (NNW)   99%  0.0mm    7.7   7.6@06:04  7.7@06:00
08:00  1026.0   8.6  14.8kmh  293 (WNW)   99%  0.0mm    7.9   7.6@07:02  8.0@07:59
09:00  1026.0   8.0  14.8kmh  307 ( NW)   99%  0.0mm    8.1   7.8@08:02  8.1@08:43
10:00  1026.0  10.4  18.7kmh  310 ( NW)   99%  0.0mm   10.2   8.1@09:00 10.3@09:58
11:00  1026.0   9.9  17.6kmh  318 ( NW)   98%  0.0mm    9.6   9.4@10:58 10.9@10:47
12:00  1025.0  11.8  23.0kmh  319 ( NW)   98%  0.0mm   10.9   9.1@11:15 11.5@11:41
13:00  1024.0  12.0  21.6kmh  298 (WNW)   99%  0.0mm   10.3   9.6@12:09 12.3@12:19
14:00  1024.0  12.1  23.0kmh  296 (WNW)   99%  0.0mm   10.3  10.1@13:24 11.0@13:43
15:00  1023.0  12.2  23.0kmh  320 ( NW)   99%  0.0mm    9.9   9.7@14:34 10.4@14:01
15:49  1023.0  13.1  22.3kmh  313 ( NW)   99%  0.0mm    9.6   9.6@15:06 10.0@15:14


Summary for yesterday, 28-Jul-2016
Time   Barom.  Wind + Gust    Direction   RH   Rain    Temp.  Minimum    Maximum
01:00  1024.0   9.0  16.2kmh  261 ( W )   99%  0.0mm    6.8   6.0@00:12  6.8@00:55
02:00  1025.0   7.1  11.9kmh  226 ( SW)   99%  0.0mm    7.0   6.8@01:00  7.0@01:09
03:00  1025.0   9.2  16.9kmh  246 (WSW)   99%  0.0mm    6.8   6.8@02:14  7.0@02:00
04:00  1025.0   9.0  17.6kmh  225 ( SW)   99%  0.0mm    6.8   6.5@03:21  6.8@03:00
05:00  1025.0   9.4  19.4kmh  212 (SSW)   99%  0.0mm    6.6   6.5@04:52  6.8@04:00
06:00  1026.0   8.0  13.3kmh  262 ( W )   99%  0.0mm    6.8   6.5@05:03  6.8@05:29
07:00  1026.0   7.1  11.9kmh  268 ( W )   99%  0.0mm    6.7   6.7@06:07  6.8@06:00
08:00  1027.0   4.6  11.2kmh  290 (WNW)   99%  0.0mm    7.1   6.6@07:19  7.1@07:59
09:00  1028.0   6.6  16.2kmh  303 (WNW)   99%  0.0mm    7.7   7.1@08:00  7.7@08:59
10:00  1028.0   7.9  14.8kmh  296 (WNW)   99%  0.0mm    8.4   7.5@09:04  8.5@09:59
11:00  1028.0   9.5  19.4kmh  319 ( NW)   99%  0.0mm    9.4   8.1@10:01  9.4@10:28
12:00  1028.0   9.3  15.5kmh  314 ( NW)   99%  0.0mm    9.9   8.9@11:04 10.2@11:32
13:00  1027.0   8.5  14.0kmh  292 (WNW)   99%  0.0mm   10.1   9.4@12:42 10.8@12:19
14:00  1026.0   7.7  14.0kmh  315 ( NW)   99%  0.0mm   10.1   8.3@13:29 10.6@13:56
15:00  1026.0   6.8  13.3kmh  221 ( SW)   99%  0.0mm   10.0   8.9@14:24 10.6@14:06
16:00  1026.0   6.0  10.8kmh  304 ( NW)   99%  0.0mm   10.0   9.6@15:14 10.6@15:07
17:00  1027.0   5.0  13.3kmh  305 ( NW)   99%  0.2mm    8.2   8.2@16:57 10.4@16:02
18:00  1027.0   6.2  11.9kmh  291 (WNW)   99%  0.0mm    8.1   8.1@17:02  8.4@17:51
19:00  1027.0   4.0  10.8kmh  327 (NNW)   99%  0.0mm    7.8   7.7@18:54  8.1@18:00
20:00  1027.0   4.2   9.4kmh   16 (NNE)   99%  0.0mm    7.3   7.0@19:24  7.8@19:00
21:00  1027.0   5.6  15.5kmh  336 (NNW)   99%  0.2mm    7.6   7.3@20:00  8.0@20:35
22:00  1027.0   8.9  13.3kmh  328 (NNW)   99%  0.0mm    7.6   7.4@21:40  7.7@21:13
23:00  1027.0   7.2  11.9kmh  339 (NNW)   99%  0.0mm    7.5   7.3@22:36  7.6@22:00
00:00  1026.0   7.5  12.6kmh  330 (NNW)   99%  0.2mm    7.6   7.3@23:33  7.6@23:01